Terminal Aerodrome Forecast
Issued by NWS Caribou, ME

Home | Current Version | Previous Version | Text Only | Print | Product List | Glossary On
Versions: 1 2 3 4 5 6 7 8 9 10 11 12 13 14 15 16 17 18 19 20 21 22 23 24
850
FTUS41 KCAR 051344 AAB
TAFCAR
TAF AMD
KCAR 051344Z 0514/0612 08007KT P6SM BKN018 OVC040
     FM051900 07008KT P6SM BKN040
     FM060400 03009KT P6SM OVC025
     FM060600 02010KT P6SM OVC015
     FM061000 01008KT P6SM BKN060=

USA.gov is the U.S. government's official web portal to all federal, state and local government web resources and services.